createdAt,value
2022-09-20T00:02:42.040Z,101026.38
2022-09-20T00:05:45.588Z,101028.13
2022-09-20T00:08:48.220Z,101020.19
2022-09-20T00:11:49.607Z,101019.41
2022-09-20T00:14:50.986Z,101019.41
2022-09-20T00:17:52.386Z,101024.09
2022-09-20T00:20:53.765Z,101017.56
2022-09-20T00:23:57.320Z,101020.81
2022-09-20T00:26:58.736Z,101018.97
2022-09-20T00:30:00.185Z,101016.16
2022-09-20T00:33:01.941Z,101019.78
2022-09-20T00:36:03.426Z,101014.63
2022-09-20T00:39:04.844Z,101013.78
2022-09-20T00:42:06.620Z,101016.41
2022-09-20T00:45:23.172Z,101035.00
2022-09-20T00:48:30.124Z,101031.88
2022-09-20T00:51:34.990Z,101021.31
2022-09-20T00:54:36.572Z,101029.03
2022-09-20T00:57:38.970Z,101022.72
2022-09-20T01:00:42.550Z,101026.00
2022-09-20T01:03:45.013Z,101023.31
2022-09-20T01:06:48.140Z,101017.09
2022-09-20T01:09:51.010Z,101028.72
2022-09-20T01:12:53.766Z,101021.69
2022-09-20T01:15:58.941Z,101023.63
2022-09-20T01:19:06.009Z,101029.91
2022-09-20T01:22:36.708Z,101021.91
2022-09-20T01:26:03.528Z,101028.22
2022-09-20T01:29:34.909Z,101030.84
2022-09-20T01:32:57.808Z,101031.78
2022-09-20T01:36:04.393Z,101032.59
2022-09-20T01:39:18.726Z,101036.88
2022-09-20T01:42:33.447Z,101030.69
2022-09-20T01:45:34.951Z,101028.91
2022-09-20T01:48:40.054Z,101025.41
2022-09-20T01:52:31.580Z,101029.81
2022-09-20T01:56:03.048Z,101035.34
2022-09-20T01:59:32.847Z,101030.28
2022-09-20T02:02:59.217Z,101020.59
2022-09-20T02:06:21.488Z,101023.28
2022-09-20T02:09:32.199Z,101019.81
2022-09-20T02:12:54.160Z,101019.72
2022-09-20T02:16:16.007Z,101018.00
2022-09-20T02:19:57.409Z,101018.78
2022-09-20T02:23:11.715Z,101014.28
2022-09-20T02:26:56.947Z,101011.63
2022-09-20T02:30:21.714Z,101018.69
2022-09-20T02:33:39.982Z,101020.47
2022-09-20T02:37:15.980Z,101016.19
2022-09-20T02:40:26.494Z,101014.56
2022-09-20T02:43:47.196Z,101015.47
2022-09-20T02:47:20.822Z,101014.56
2022-09-20T02:50:46.970Z,101025.75
2022-09-20T02:54:06.392Z,101028.50
2022-09-20T02:57:29.090Z,101035.56
2022-09-20T03:00:44.284Z,101029.72
2022-09-20T03:04:33.736Z,101035.28
2022-09-20T03:07:57.963Z,101035.28
2022-09-20T03:11:18.518Z,101040.38
2022-09-20T03:14:27.548Z,101042.91
2022-09-20T03:17:51.440Z,101051.69
2022-09-20T03:21:22.685Z,101050.81
2022-09-20T03:24:37.057Z,101047.38
2022-09-20T03:27:49.096Z,101049.94
2022-09-20T03:31:11.761Z,101050.09
2022-09-20T03:34:31.818Z,101051.19
2022-09-20T03:37:58.085Z,101051.41
2022-09-20T03:41:13.953Z,101053.16
2022-09-20T03:44:36.964Z,101055.31
2022-09-20T03:47:44.309Z,101050.91
2022-09-20T03:51:09.220Z,101056.09
2022-09-20T03:54:32.188Z,101051.66
2022-09-20T03:57:57.732Z,101050.03
2022-09-20T04:01:20.959Z,101059.72
2022-09-20T04:04:40.675Z,101056.38
2022-09-20T04:08:00.979Z,101055.50
2022-09-20T04:11:08.404Z,101054.63
2022-09-20T04:14:18.282Z,101052.06
2022-09-20T04:17:38.300Z,101049.53
2022-09-20T04:20:46.414Z,101049.53
2022-09-20T04:23:59.068Z,101051.31
2022-09-20T04:27:05.880Z,101063.66
2022-09-20T04:30:19.706Z,101053.00
2022-09-20T04:33:33.697Z,101063.66
2022-09-20T04:36:58.254Z,101068.06
2022-09-20T04:40:14.529Z,101068.13
2022-09-20T04:43:53.650Z,101072.66
2022-09-20T04:47:42.851Z,101065.66
2022-09-20T04:51:13.432Z,101070.94
2022-09-20T04:54:49.312Z,101076.34
2022-09-20T04:58:22.925Z,101087.28
2022-09-20T05:02:08.340Z,101088.97
2022-09-20T05:05:36.480Z,101098.59
2022-09-20T05:08:59.345Z,101101.19
2022-09-20T05:12:19.756Z,101103.84
2022-09-20T05:15:38.480Z,101101.34
2022-09-20T05:19:13.054Z,101107.91
2022-09-20T05:22:42.350Z,101113.97
2022-09-20T05:25:59.039Z,101111.31
2022-09-20T05:29:25.110Z,101111.25
2022-09-20T05:32:48.480Z,101123.63
2022-09-20T05:36:34.389Z,101128.81
2022-09-20T05:39:49.579Z,101121.53
2022-09-20T05:43:05.986Z,101130.28
2022-09-20T05:46:13.154Z,101125.81
2022-09-20T05:49:41.933Z,101131.19
2022-09-20T05:53:05.138Z,101139.06
2022-09-20T05:56:19.050Z,101131.94
2022-09-20T05:59:40.119Z,101128.31
2022-09-20T06:03:10.378Z,101131.56
2022-09-20T06:06:18.192Z,101127.84
2022-09-20T06:09:41.013Z,101125.19
2022-09-20T06:13:00.527Z,101139.19
2022-09-20T06:16:05.130Z,101135.00
2022-09-20T06:19:19.908Z,101137.38
2022-09-20T06:22:29.641Z,101144.34
2022-09-20T06:25:42.822Z,101142.50
2022-09-20T06:28:54.221Z,101146.72
2022-09-20T06:31:59.312Z,101139.56
2022-09-20T06:35:03.397Z,101134.66
2022-09-20T06:38:42.422Z,101139.69
2022-09-20T06:41:44.731Z,101135.00
2022-09-20T06:44:46.873Z,101135.53
2022-09-20T06:47:48.377Z,101136.56
2022-09-20T06:50:49.823Z,101143.66
2022-09-20T06:53:52.551Z,101144.50
2022-09-20T06:56:54.688Z,101145.25
2022-09-20T06:59:56.125Z,101147.69
2022-09-20T07:02:57.547Z,101157.41
2022-09-20T07:06:00.481Z,101154.75
2022-09-20T07:09:02.220Z,101152.59
2022-09-20T07:12:03.877Z,101146.00
2022-09-20T07:15:06.178Z,101150.78
2022-09-20T07:18:08.113Z,101152.22
2022-09-20T07:21:15.054Z,101148.53
2022-09-20T07:24:16.436Z,101148.78
2022-09-20T07:27:17.955Z,101153.53
2022-09-20T07:30:20.265Z,101161.53
2022-09-20T07:33:22.033Z,101166.25
2022-09-20T07:36:23.666Z,101159.72
2022-09-20T07:39:25.735Z,101173.63
2022-09-20T07:42:29.007Z,101174.59
2022-09-20T07:45:31.131Z,101173.72
2022-09-20T07:48:35.142Z,101179.34
2022-09-20T07:51:36.579Z,101177.88
2022-09-20T07:54:38.111Z,101190.41
2022-09-20T07:57:39.610Z,101183.06
2022-09-20T08:00:40.980Z,101183.25
2022-09-20T08:03:42.871Z,101195.56
2022-09-20T08:06:45.362Z,101193.34
2022-09-20T08:09:46.736Z,101195.06
2022-09-20T08:16:11.886Z,101200.97
2022-09-20T08:19:21.557Z,101196.41
2022-09-20T08:22:23.145Z,101199.13
2022-09-20T08:25:24.818Z,101200.13
2022-09-20T08:28:26.202Z,101200.97
2022-09-20T08:31:36.554Z,101204.00
2022-09-20T08:34:39.534Z,101205.13
2022-09-20T08:37:43.548Z,101201.34
2022-09-20T08:40:45.112Z,101201.59
2022-09-20T08:44:11.556Z,101203.81
2022-09-20T08:47:36.498Z,101200.16
2022-09-20T08:50:37.976Z,101198.81
2022-09-20T08:53:49.116Z,101204.66
2022-09-20T08:56:51.030Z,101206.25
2022-09-20T08:59:52.837Z,101208.44
2022-09-20T09:02:56.996Z,101203.19
2022-09-20T09:05:58.685Z,101183.84
2022-09-20T09:09:00.143Z,101186.75
2022-09-20T09:12:01.920Z,101198.75
2022-09-20T09:15:36.712Z,101201.75
2022-09-20T09:18:41.252Z,101194.78
2022-09-20T09:21:43.178Z,101193.28
2022-09-20T09:24:44.880Z,101196.31
2022-09-20T09:27:58.343Z,101195.66
2022-09-20T09:31:28.882Z,101191.22
2022-09-20T09:34:33.905Z,101191.19
2022-09-20T09:37:35.296Z,101186.16
2022-09-20T09:40:36.784Z,101187.22
2022-09-20T09:43:40.473Z,101201.22
2022-09-20T09:46:41.886Z,101188.66
2022-09-20T09:50:02.677Z,101186.69
2022-09-20T09:53:12.381Z,101189.53
2022-09-20T09:56:34.560Z,101182.53
2022-09-20T10:00:06.644Z,101186.50
2022-09-20T10:03:31.873Z,101179.19
2022-09-20T10:07:03.251Z,101170.47
2022-09-20T10:10:43.436Z,101165.97
2022-09-20T10:14:07.501Z,101175.06
2022-09-20T10:17:27.524Z,101177.59
2022-09-20T10:20:53.123Z,101176.13
2022-09-20T10:24:33.442Z,101173.69
2022-09-20T10:28:08.678Z,101176.69
2022-09-20T10:31:26.030Z,101178.56
2022-09-20T10:34:30.508Z,101173.34
2022-09-20T10:37:49.071Z,101170.81
2022-09-20T10:41:15.225Z,101168.97
2022-09-20T10:44:19.394Z,101170.22
2022-09-20T10:47:31.353Z,101177.06
2022-09-20T10:50:45.482Z,101164.94
2022-09-20T10:53:59.238Z,101174.03
2022-09-20T10:57:26.809Z,101167.31
2022-09-20T11:00:54.426Z,101170.81
2022-09-20T11:04:12.149Z,101168.72
2022-09-20T11:07:32.721Z,101168.00
2022-09-20T11:10:42.966Z,101152.56
2022-09-20T11:13:58.129Z,101154.63
2022-09-20T11:17:15.737Z,101142.53
2022-09-20T11:20:24.259Z,101138.66
2022-09-20T11:23:51.312Z,101148.28
2022-09-20T11:26:56.853Z,101148.38
2022-09-20T11:30:04.230Z,101154.50
2022-09-20T11:33:18.140Z,101157.25
2022-09-20T11:36:26.800Z,101158.59
2022-09-20T11:39:30.830Z,101161.69
2022-09-20T11:42:36.351Z,101172.00
2022-09-20T11:45:40.108Z,101169.25
2022-09-20T11:48:51.521Z,101171.50
2022-09-20T11:52:11.333Z,101178.00
2022-09-20T11:55:24.424Z,101173.06
2022-09-20T11:58:27.295Z,101177.13
2022-09-20T12:01:32.501Z,101183.66
2022-09-20T12:04:36.224Z,101177.75
2022-09-20T12:07:40.898Z,101180.84
2022-09-20T12:10:42.741Z,101177.06
2022-09-20T12:13:55.256Z,101172.66
2022-09-20T12:16:57.008Z,101171.28
2022-09-20T12:19:58.713Z,101165.59
2022-09-20T12:23:37.150Z,101173.53
2022-09-20T12:26:41.787Z,101162.19
2022-09-20T12:29:47.464Z,101157.41
2022-09-20T12:32:54.999Z,101152.84
2022-09-20T12:36:15.740Z,101158.34
2022-09-20T12:39:22.551Z,101157.66
2022-09-20T12:42:33.028Z,101152.16
2022-09-20T12:45:35.442Z,101155.88
2022-09-20T12:48:37.964Z,101155.28
2022-09-20T12:51:57.646Z,101153.53
2022-09-20T12:55:03.780Z,101145.78
2022-09-20T12:58:14.180Z,101150.41
2022-09-20T13:01:15.546Z,101142.25
2022-09-20T13:04:55.348Z,101141.03
2022-09-20T13:08:02.841Z,101134.53
2022-09-20T13:11:07.309Z,101142.06
2022-09-20T13:14:26.134Z,101134.69
2022-09-20T13:17:31.713Z,101133.38
2022-09-20T13:20:35.019Z,101132.06
2022-09-20T13:23:46.618Z,101126.91
2022-09-20T13:26:49.641Z,101124.06
2022-09-20T13:29:51.717Z,101120.94
2022-09-20T13:32:53.250Z,101131.84
2022-09-20T13:35:58.022Z,101135.72
2022-09-20T13:39:00.076Z,101130.91
2022-09-20T13:42:09.058Z,101125.53
2022-09-20T13:45:13.827Z,101120.59
2022-09-20T13:48:16.606Z,101119.97
2022-09-20T13:51:20.449Z,101116.16
2022-09-20T13:54:33.170Z,101114.81
2022-09-20T13:57:34.845Z,101115.66
2022-09-20T14:00:38.133Z,101119.38
2022-09-20T14:03:39.840Z,101116.50
2022-09-20T14:06:42.384Z,101124.59
2022-09-20T14:09:44.197Z,101119.28
2022-09-20T14:12:49.012Z,101117.34
2022-09-20T14:15:50.554Z,101124.59
2022-09-20T14:18:52.166Z,101126.31
2022-09-20T14:21:53.950Z,101125.13
2022-09-20T14:25:12.422Z,101117.78
2022-09-20T14:28:20.234Z,101122.69
2022-09-20T14:31:31.575Z,101117.91
2022-09-20T14:34:37.805Z,101115.19
2022-09-20T14:37:59.270Z,101118.19
2022-09-20T14:41:00.742Z,101105.56
2022-09-20T14:44:03.535Z,101105.03
2022-09-20T14:47:15.415Z,101116.38
2022-09-20T14:50:54.453Z,101116.00
2022-09-20T14:54:04.996Z,101123.56
2022-09-20T14:57:06.568Z,101123.06
2022-09-20T15:00:11.768Z,101115.81
2022-09-20T15:03:16.332Z,101116.88
2022-09-20T15:06:17.861Z,101110.22
2022-09-20T15:09:21.602Z,101110.03
2022-09-20T15:12:23.034Z,101109.06
2022-09-20T15:15:24.489Z,101106.97
2022-09-20T15:18:28.741Z,101116.09
2022-09-20T15:21:30.412Z,101107.81
2022-09-20T15:24:31.865Z,101111.69
2022-09-20T15:27:33.616Z,101110.34
2022-09-20T15:30:35.723Z,101113.81
2022-09-20T15:33:37.480Z,101112.81
2022-09-20T15:36:40.582Z,101116.53
2022-09-20T15:39:41.940Z,101111.22
2022-09-20T15:42:43.818Z,101105.19
2022-09-20T15:45:53.592Z,101115.66
2022-09-20T15:48:56.339Z,101116.69
2022-09-20T15:51:57.767Z,101119.44
2022-09-20T15:55:00.177Z,101118.53
2022-09-20T15:58:01.573Z,101126.84
2022-09-20T16:01:07.934Z,101122.75
2022-09-20T16:04:12.382Z,101118.81
2022-09-20T16:07:14.396Z,101124.13
2022-09-20T16:10:15.842Z,101127.53
2022-09-20T16:13:17.220Z,101121.88
2022-09-20T16:16:18.700Z,101126.31
2022-09-20T16:19:20.687Z,101129.31
2022-09-20T16:22:22.323Z,101126.00
2022-09-20T16:25:23.897Z,101129.56
2022-09-20T16:28:25.424Z,101129.69
2022-09-20T16:31:49.228Z,101138.56
2022-09-20T16:34:51.040Z,101134.28
2022-09-20T16:37:52.550Z,101138.00
2022-09-20T16:40:55.601Z,101138.81
2022-09-20T16:43:57.033Z,101142.28
2022-09-20T16:46:58.578Z,101139.63
2022-09-20T16:50:00.031Z,101138.00
2022-09-20T16:53:01.408Z,101142.28
2022-09-20T16:56:06.009Z,101146.78
2022-09-20T16:59:08.085Z,101143.09
2022-09-20T17:02:12.657Z,101149.19
2022-09-20T17:05:14.169Z,101142.28
2022-09-20T17:08:15.573Z,101154.66
2022-09-20T17:11:21.648Z,101163.84
2022-09-20T17:14:24.953Z,101163.78
2022-09-20T17:17:26.411Z,101165.53
2022-09-20T17:20:30.011Z,101165.78
2022-09-20T17:23:35.486Z,101163.31
2022-09-20T17:26:40.243Z,101171.22
2022-09-20T17:29:41.664Z,101172.25
2022-09-20T17:32:47.998Z,101170.66
2022-09-20T17:35:52.530Z,101168.38
2022-09-20T17:38:56.576Z,101170.59
2022-09-20T17:42:01.329Z,101173.56
2022-09-20T17:45:02.723Z,101178.31
2022-09-20T17:48:04.620Z,101175.69
2022-09-20T17:51:09.227Z,101176.59
2022-09-20T17:54:14.677Z,101183.72
2022-09-20T17:57:16.048Z,101186.84
2022-09-20T18:00:17.418Z,101193.53
2022-09-20T18:03:19.021Z,101193.53
2022-09-20T18:06:29.424Z,101204.25
2022-09-20T18:09:30.861Z,101197.41
2022-09-20T18:12:32.234Z,101208.22
2022-09-20T18:15:34.103Z,101207.47
2022-09-20T18:18:35.599Z,101213.75
2022-09-20T18:21:39.197Z,101216.56
2022-09-20T18:24:40.561Z,101221.34
2022-09-20T18:27:42.275Z,101216.44
2022-09-20T18:30:46.085Z,101227.38
2022-09-20T18:33:47.465Z,101234.63
2022-09-20T18:36:57.489Z,101229.81
2022-09-20T18:39:58.925Z,101230.19
2022-09-20T18:43:04.506Z,101232.28
2022-09-20T18:46:06.198Z,101234.84
2022-09-20T18:49:09.580Z,101240.03
2022-09-20T18:52:12.228Z,101246.09
2022-09-20T18:55:14.690Z,101246.97
2022-09-20T18:58:20.709Z,101260.16
2022-09-20T19:01:50.268Z,101256.69
2022-09-20T19:04:58.856Z,101260.31
2022-09-20T19:08:17.140Z,101269.13
2022-09-20T19:11:27.600Z,101271.06
2022-09-20T19:14:40.320Z,101286.28
2022-09-20T19:17:57.015Z,101289.06
2022-09-20T19:21:18.940Z,101287.22
2022-09-20T19:25:01.189Z,101289.97
2022-09-20T19:28:02.764Z,101297.59
2022-09-20T19:31:04.486Z,101309.38
2022-09-20T19:34:15.197Z,101307.03
2022-09-20T19:37:54.960Z,101302.88
2022-09-20T19:41:47.179Z,101303.66
2022-09-20T19:45:20.965Z,101306.34
2022-09-20T19:48:37.131Z,101307.50
2022-09-20T19:51:40.965Z,101310.31
2022-09-20T19:54:46.648Z,101311.38
2022-09-20T19:57:48.517Z,101308.94
2022-09-20T20:00:50.161Z,101308.31
2022-09-20T20:03:53.157Z,101316.59
2022-09-20T20:07:27.866Z,101309.75
2022-09-20T20:10:39.419Z,101311.00
2022-09-20T20:14:03.027Z,101317.41
2022-09-20T20:17:30.058Z,101308.00
2022-09-20T20:20:39.480Z,101312.25
2022-09-20T20:24:04.832Z,101318.97
2022-09-20T20:27:06.468Z,101327.72
2022-09-20T20:30:08.565Z,101331.97
2022-09-20T20:33:16.791Z,101331.16
2022-09-20T20:36:18.416Z,101333.63
2022-09-20T20:39:20.013Z,101336.22
2022-09-20T20:42:21.507Z,101337.91
2022-09-20T20:45:22.873Z,101337.84
2022-09-20T20:48:24.360Z,101336.34
2022-09-20T20:51:27.145Z,101334.81
2022-09-20T20:54:28.774Z,101341.19
2022-09-20T20:57:31.264Z,101342.13
2022-09-20T21:00:32.638Z,101348.34
2022-09-20T21:03:35.258Z,101345.63
2022-09-20T21:06:40.496Z,101340.28
2022-09-20T21:09:42.305Z,101340.19
2022-09-20T21:12:44.380Z,101341.19
2022-09-20T21:15:46.319Z,101332.44
2022-09-20T21:18:50.097Z,101324.78
2022-09-20T21:21:51.721Z,101341.63
2022-09-20T21:24:53.996Z,101342.41
2022-09-20T21:27:55.457Z,101330.06
2022-09-20T21:30:59.514Z,101330.91
2022-09-20T21:34:06.974Z,101340.63
2022-09-20T21:37:09.520Z,101340.63
2022-09-20T21:40:11.173Z,101339.13
2022-09-20T21:43:13.900Z,101340.09
2022-09-20T21:46:17.908Z,101338.47
2022-09-20T21:49:19.395Z,101341.25
2022-09-20T21:52:20.766Z,101339.59
2022-09-20T21:55:22.156Z,101346.44
2022-09-20T21:58:24.015Z,101352.66
2022-09-20T22:01:27.314Z,101347.56
2022-09-20T22:04:29.091Z,101348.66
2022-09-20T22:07:30.470Z,101353.94
2022-09-20T22:10:31.930Z,101351.31
2022-09-20T22:13:33.844Z,101359.34
2022-09-20T22:16:37.841Z,101349.06
2022-09-20T22:19:39.920Z,101350.09
2022-09-20T22:22:41.398Z,101358.81
2022-09-20T22:25:42.917Z,101357.94
2022-09-20T22:28:44.327Z,101353.78
2022-09-20T22:31:47.738Z,101349.59
2022-09-20T22:34:49.096Z,101348.75
2022-09-20T22:37:50.468Z,101344.38
2022-09-20T22:40:53.795Z,101347.84
2022-09-20T22:43:55.445Z,101340.69
2022-09-20T22:46:56.814Z,101343.25
2022-09-20T22:49:58.200Z,101344.22
2022-09-20T22:52:59.576Z,101349.56
2022-09-20T22:56:06.073Z,101353.91
2022-09-20T22:59:12.608Z,101351.31
2022-09-20T23:02:13.997Z,101349.66
2022-09-20T23:05:16.958Z,101360.31
2022-09-20T23:08:18.684Z,101358.69
2022-09-20T23:11:20.473Z,101356.16
2022-09-20T23:14:22.796Z,101353.59
2022-09-20T23:17:24.232Z,101357.31
2022-09-20T23:20:25.692Z,101362.00
2022-09-20T23:23:27.674Z,101357.09
2022-09-20T23:26:31.456Z,101357.22
2022-09-20T23:29:33.508Z,101358.03
2022-09-20T23:32:34.872Z,101358.03
2022-09-20T23:35:42.579Z,101356.53
2022-09-20T23:38:44.742Z,101352.94
2022-09-20T23:41:50.802Z,101357.28
2022-09-20T23:44:52.782Z,101351.25
2022-09-20T23:47:54.186Z,101347.84
2022-09-20T23:50:56.453Z,101354.97
2022-09-20T23:53:58.196Z,101359.59
2022-09-20T23:56:59.574Z,101347.34
